Time;durP1;ratioP1;P1;durP2;ratioP2;P2;SDS_P1;SDS_P2;PMS_P1;PMS_P2;Temp;Humidity;BMP_temperature;BMP_pressure;BME280_temperature;BME280_humidity;BME280_pressure;Samples;Min_cycle;Max_cycle;Signal;HPM_P1;HPM_P2
2022/09/20 00:00:41;;;;;;;0.70;0.47;;;14.70;99.90;;;;;;6088995;23;20022;-73
2022/09/20 00:03:08;;;;;;;0.40;0.40;;;14.60;99.90;;;;;;6087271;23;20021;-73
2022/09/20 00:05:36;;;;;;;1.08;0.65;;;14.50;99.90;;;;;;6088402;23;20048;-73
2022/09/20 00:08:03;;;;;;;0.50;0.50;;;14.50;99.90;;;;;;6064511;23;20346;-73
2022/09/20 00:10:34;;;;;;;0.77;0.43;;;14.30;99.90;;;;;;6088457;23;20500;-73
2022/09/20 00:13:01;;;;;;;0.80;0.60;;;14.30;99.90;;;;;;6088975;23;20473;-73
2022/09/20 00:15:28;;;;;;;0.70;0.57;;;14.20;99.90;;;;;;6065472;23;20176;-73
2022/09/20 00:17:56;;;;;;;0.30;0.30;;;14.10;99.90;;;;;;6088111;23;20375;-73
2022/09/20 00:20:23;;;;;;;0.68;0.45;;;14.00;99.90;;;;;;6088244;23;20025;-73
2022/09/20 00:22:50;;;;;;;0.60;0.43;;;13.90;99.90;;;;;;6113469;23;20027;-72
2022/09/20 00:25:17;;;;;;;0.43;0.40;;;13.80;99.90;;;;;;6088630;23;20096;-72
2022/09/20 00:27:45;;;;;;;0.60;0.57;;;13.70;99.90;;;;;;6088216;23;20117;-73
2022/09/20 00:30:12;;;;;;;0.32;0.32;;;13.70;99.90;;;;;;6088639;23;20728;-73
2022/09/20 00:32:39;;;;;;;0.47;0.35;;;13.60;99.90;;;;;;6087471;23;20022;-72
2022/09/20 00:35:07;;;;;;;0.68;0.50;;;13.60;99.90;;;;;;6114258;23;20026;-72
2022/09/20 00:37:34;;;;;;;0.60;0.50;;;13.50;99.90;;;;;;6087789;23;20025;-72
2022/09/20 00:40:01;;;;;;;0.52;0.30;;;13.50;99.90;;;;;;6088829;23;20018;-73
2022/09/20 00:42:28;;;;;;;0.38;0.30;;;13.40;99.90;;;;;;6088016;23;20052;-75
2022/09/20 00:45:00;;;;;;;0.40;0.22;;;13.40;99.90;;;;;;6088785;23;20454;-72
2022/09/20 00:48:03;;;;;;;0.57;0.50;;;13.30;99.90;;;;;;6087666;23;20026;-72
2022/09/20 00:50:48;;;;;;;0.65;0.45;;;13.30;99.90;;;;;;6062819;23;20072;-72
2022/09/20 00:53:18;;;;;;;0.80;0.70;;;13.20;99.90;;;;;;6087927;23;20136;-72
2022/09/20 00:55:49;;;;;;;0.30;0.30;;;13.20;99.90;;;;;;6113845;23;20459;-73
2022/09/20 00:58:15;;;;;;;0.45;0.30;;;13.20;99.90;;;;;;6088497;23;20032;-74
2022/09/20 01:00:42;;;;;;;0.70;0.50;;;13.10;99.90;;;;;;6064505;23;20501;-74
2022/09/20 01:03:09;;;;;;;0.30;0.30;;;13.00;99.90;;;;;;6058187;23;20022;-75
2022/09/20 01:05:36;;;;;;;0.50;0.50;;;13.00;99.90;;;;;;6059068;23;20033;-72
2022/09/20 01:08:03;;;;;;;0.35;0.35;;;13.00;99.90;;;;;;6085369;23;20042;-72
2022/09/20 01:10:30;;;;;;;0.32;0.30;;;12.90;99.90;;;;;;6087622;23;20278;-72
2022/09/20 01:12:57;;;;;;;0.77;0.50;;;12.90;99.90;;;;;;6063266;23;20122;-72
2022/09/20 01:15:26;;;;;;;0.60;0.40;;;12.90;99.90;;;;;;6087451;23;20386;-74
2022/09/20 01:17:53;;;;;;;0.43;0.43;;;12.90;99.90;;;;;;6062494;23;20044;-74
2022/09/20 01:20:30;;;;;;;0.68;0.52;;;12.90;99.90;;;;;;6086408;23;20018;-74
2022/09/20 01:23:28;;;;;;;0.40;0.40;;;12.80;99.90;;;;;;6062329;23;20032;-73
2022/09/20 01:26:27;;;;;;;0.80;0.50;;;12.80;99.90;;;;;;6063085;23;20118;-73
2022/09/20 01:29:25;;;;;;;0.40;0.40;;;12.80;99.90;;;;;;6077887;23;20029;-74
2022/09/20 01:31:53;;;;;;;0.60;0.50;;;12.80;99.90;;;;;;6087445;23;20054;-74
2022/09/20 01:34:27;;;;;;;0.50;0.40;;;12.70;99.90;;;;;;6060710;23;20033;-74
2022/09/20 01:37:06;;;;;;;0.60;0.47;;;12.70;99.90;;;;;;6083838;23;20023;-73
2022/09/20 01:39:42;;;;;;;0.68;0.50;;;12.60;99.90;;;;;;6088584;23;20068;-75
2022/09/20 01:42:12;;;;;;;0.88;0.50;;;12.60;99.90;;;;;;6091131;23;20036;-75
2022/09/20 01:44:51;;;;;;;0.77;0.43;;;12.60;99.90;;;;;;6089153;23;20026;-75
2022/09/20 01:47:53;;;;;;;0.82;0.60;;;12.50;99.90;;;;;;6087226;23;20032;-72
2022/09/20 01:50:32;;;;;;;0.73;0.47;;;12.50;99.90;;;;;;6056351;23;20024;-72
2022/09/20 01:53:36;;;;;;;0.88;0.50;;;12.50;99.90;;;;;;6088371;23;20099;-73
2022/09/20 01:56:36;;;;;;;0.63;0.47;;;12.50;99.90;;;;;;6089361;23;20022;-73
2022/09/20 01:59:26;;;;;;;0.40;0.40;;;12.40;99.90;;;;;;6087793;23;20090;-73
2022/09/20 02:02:06;;;;;;;0.75;0.60;;;12.30;99.90;;;;;;6085925;23;20022;-73
2022/09/20 02:04:58;;;;;;;0.88;0.55;;;12.20;99.90;;;;;;6114649;23;20065;-72
2022/09/20 02:07:46;;;;;;;0.57;0.47;;;12.20;99.90;;;;;;6095291;23;20026;-73
2022/09/20 02:10:56;;;;;;;1.08;0.80;;;12.20;99.90;;;;;;6070655;23;20021;-73
2022/09/20 02:13:54;;;;;;;0.68;0.65;;;12.20;99.90;;;;;;6001579;23;20018;-73
2022/09/20 02:16:33;;;;;;;0.73;0.65;;;12.30;99.90;;;;;;6091144;23;20053;-73
2022/09/20 02:19:09;;;;;;;0.70;0.52;;;12.30;99.90;;;;;;6091829;23;20097;-73
2022/09/20 02:21:45;;;;;;;0.70;0.60;;;12.40;99.90;;;;;;6116602;23;20474;-73
2022/09/20 02:24:31;;;;;;;0.30;0.30;;;12.40;99.90;;;;;;6091667;23;20071;-73
2022/09/20 02:27:19;;;;;;;0.95;0.47;;;12.40;99.90;;;;;;6067881;23;20028;-73
2022/09/20 02:30:04;;;;;;;0.77;0.50;;;12.50;99.90;;;;;;6093672;23;20022;-73
2022/09/20 02:32:50;;;;;;;0.70;0.50;;;12.50;99.90;;;;;;6116532;23;20411;-73
2022/09/20 02:35:44;;;;;;;1.00;0.47;;;12.50;99.90;;;;;;6116815;23;20022;-73
2022/09/20 02:38:46;;;;;;;0.73;0.60;;;12.60;99.90;;;;;;6117182;23;20093;-73
2022/09/20 02:41:39;;;;;;;0.80;0.50;;;12.60;99.90;;;;;;6091558;23;20097;-73
2022/09/20 02:44:45;;;;;;;1.08;0.77;;;12.60;99.90;;;;;;6092017;23;20048;-73
2022/09/20 02:47:20;;;;;;;0.82;0.55;;;12.70;99.90;;;;;;6091169;23;20022;-73
2022/09/20 02:49:59;;;;;;;1.80;0.73;;;12.70;99.90;;;;;;6092717;23;20415;-73
2022/09/20 02:52:34;;;;;;;1.10;0.80;;;12.70;99.90;;;;;;6090319;23;20482;-73
2022/09/20 02:55:06;;;;;;;1.13;0.55;;;12.80;99.90;;;;;;6117958;23;20022;-73
2022/09/20 02:58:06;;;;;;;1.25;0.70;;;12.80;99.90;;;;;;6091631;23;20025;-73
2022/09/20 03:00:41;;;;;;;0.57;0.40;;;12.80;99.90;;;;;;6091924;23;20018;-73
2022/09/20 03:03:22;;;;;;;0.70;0.40;;;12.80;99.90;;;;;;6066516;23;20450;-73
2022/09/20 03:06:07;;;;;;;1.08;0.63;;;12.80;99.90;;;;;;6091652;23;20018;-73
2022/09/20 03:08:46;;;;;;;1.00;0.70;;;12.80;99.90;;;;;;6091494;23;20347;-73
2022/09/20 03:11:25;;;;;;;0.93;0.77;;;12.90;99.90;;;;;;6092393;23;20018;-73
2022/09/20 03:14:12;;;;;;;0.98;0.80;;;12.90;99.90;;;;;;6117656;23;20458;-73
2022/09/20 03:17:03;;;;;;;1.13;0.80;;;12.90;99.90;;;;;;6090717;23;20030;-73
2022/09/20 03:19:52;;;;;;;1.27;0.82;;;12.80;99.90;;;;;;6091410;23;20064;-73
2022/09/20 03:22:25;;;;;;;0.70;0.60;;;12.70;99.90;;;;;;6093856;23;20018;-73
2022/09/20 03:25:26;;;;;;;1.17;0.73;;;12.70;99.90;;;;;;6092064;23;20022;-73
2022/09/20 03:28:08;;;;;;;0.57;0.50;;;12.70;99.90;;;;;;6030863;23;20018;-73
2022/09/20 03:31:06;;;;;;;2.15;0.80;;;12.70;99.90;;;;;;6091808;23;20040;-73
2022/09/20 03:33:58;;;;;;;0.88;0.55;;;12.70;99.90;;;;;;6116484;23;20028;-73
2022/09/20 03:36:37;;;;;;;0.73;0.50;;;12.80;99.90;;;;;;6116864;23;20034;-73
2022/09/20 03:39:23;;;;;;;0.73;0.55;;;12.80;99.90;;;;;;6068397;23;20042;-73
2022/09/20 03:41:58;;;;;;;1.00;0.70;;;12.90;99.90;;;;;;6116850;23;20032;-74
2022/09/20 03:44:50;;;;;;;1.27;0.68;;;12.90;99.90;;;;;;6091273;23;20026;-73
2022/09/20 03:47:35;;;;;;;1.13;0.63;;;12.80;99.90;;;;;;6116087;23;20021;-73
2022/09/20 03:50:10;;;;;;;1.17;0.80;;;12.80;99.90;;;;;;6117432;23;20018;-74
2022/09/20 03:53:04;;;;;;;1.88;0.70;;;12.80;99.90;;;;;;6090825;23;20025;-73
2022/09/20 03:55:40;;;;;;;0.73;0.70;;;12.80;99.90;;;;;;6117600;23;20018;-73
2022/09/20 03:58:12;;;;;;;0.55;0.50;;;12.80;99.90;;;;;;6117284;23;20386;-74
2022/09/20 04:01:05;;;;;;;0.98;0.73;;;12.80;99.90;;;;;;6117313;23;20024;-73
2022/09/20 04:03:44;;;;;;;1.42;0.63;;;12.70;99.90;;;;;;6091891;23;20026;-74
2022/09/20 04:06:27;;;;;;;0.57;0.47;;;12.70;99.90;;;;;;6093761;23;20030;-74
2022/09/20 04:09:12;;;;;;;0.95;0.73;;;12.70;99.90;;;;;;6094238;23;20041;-74
2022/09/20 04:12:04;;;;;;;0.80;0.50;;;12.60;99.90;;;;;;6118889;23;20036;-73
2022/09/20 04:14:48;;;;;;;0.90;0.60;;;12.50;99.90;;;;;;6119119;23;20033;-74
2022/09/20 04:17:52;;;;;;;1.08;0.80;;;12.40;99.90;;;;;;6092539;23;20032;-73
2022/09/20 04:20:31;;;;;;;1.13;0.60;;;12.40;99.90;;;;;;6118637;23;20022;-73
2022/09/20 04:23:01;;;;;;;0.98;0.60;;;12.30;99.90;;;;;;6092548;23;20044;-73
2022/09/20 04:25:32;;;;;;;1.15;0.63;;;12.10;99.90;;;;;;6093921;23;20091;-74
2022/09/20 04:28:11;;;;;;;0.70;0.50;;;12.00;99.90;;;;;;6069674;23;20032;-74
2022/09/20 04:30:42;;;;;;;1.17;0.70;;;11.90;99.90;;;;;;6070046;23;20018;-73
2022/09/20 04:33:30;;;;;;;0.80;0.60;;;11.80;99.90;;;;;;6092170;23;20030;-73
2022/09/20 04:36:28;;;;;;;0.52;0.50;;;11.70;99.90;;;;;;6091633;23;20165;-74
2022/09/20 04:39:23;;;;;;;0.73;0.52;;;11.70;99.90;;;;;;6098784;23;20101;-73
2022/09/20 04:42:07;;;;;;;1.55;0.50;;;11.50;99.90;;;;;;6082365;23;20548;-73
2022/09/20 04:45:06;;;;;;;1.85;1.00;;;11.50;99.90;;;;;;6118739;23;20032;-73
2022/09/20 04:48:03;;;;;;;1.02;0.57;;;11.40;99.90;;;;;;6090859;23;20089;-73
2022/09/20 04:50:33;;;;;;;1.35;0.77;;;11.40;99.90;;;;;;6071063;23;20029;-72
2022/09/20 04:53:24;;;;;;;0.80;0.40;;;11.30;99.90;;;;;;6089603;23;20041;-73
2022/09/20 04:56:00;;;;;;;1.23;0.70;;;11.30;99.90;;;;;;6094923;23;20032;-73
2022/09/20 04:58:55;;;;;;;1.35;0.80;;;11.20;99.90;;;;;;6089389;23;20096;-72
2022/09/20 05:02:02;;;;;;;1.00;0.65;;;11.20;99.90;;;;;;6088963;23;20021;-73
2022/09/20 05:04:53;;;;;;;0.70;0.52;;;11.10;99.90;;;;;;6112556;23;20029;-74
2022/09/20 05:07:26;;;;;;;1.15;0.70;;;11.00;99.90;;;;;;6111902;23;20022;-74
2022/09/20 05:10:13;;;;;;;1.05;0.75;;;11.00;99.90;;;;;;6088910;23;20065;-74
2022/09/20 05:12:53;;;;;;;1.17;0.70;;;10.90;99.90;;;;;;6115195;23;20022;-74
2022/09/20 05:15:22;;;;;;;1.30;0.73;;;10.90;99.90;;;;;;6087390;23;20025;-74
2022/09/20 05:18:22;;;;;;;0.90;0.73;;;10.90;99.90;;;;;;6114912;23;20069;-73
2022/09/20 05:21:26;;;;;;;1.13;0.68;;;10.80;99.90;;;;;;6090241;23;20064;-73
2022/09/20 05:24:24;;;;;;;0.80;0.70;;;10.80;99.90;;;;;;6085982;23;20032;-75
2022/09/20 05:27:18;;;;;;;1.00;0.80;;;10.70;99.90;;;;;;6113918;23;20258;-73
2022/09/20 05:29:53;;;;;;;1.00;0.73;;;10.70;99.90;;;;;;6089836;23;20022;-73
2022/09/20 05:32:28;;;;;;;0.90;0.60;;;10.70;99.90;;;;;;6089848;23;20492;-74
2022/09/20 05:35:05;;;;;;;1.13;0.70;;;10.60;99.90;;;;;;6065398;23;20458;-74
2022/09/20 05:37:58;;;;;;;1.20;0.70;;;10.60;99.90;;;;;;6089104;23;20026;-73
2022/09/20 05:40:50;;;;;;;1.00;0.80;;;10.60;99.90;;;;;;6090348;23;20553;-73
2022/09/20 05:43:25;;;;;;;0.80;0.70;;;10.60;99.90;;;;;;6116328;23;20249;-74
2022/09/20 05:46:21;;;;;;;2.28;0.88;;;10.60;99.90;;;;;;6082736;23;20276;-73
2022/09/20 05:48:52;;;;;;;1.65;0.85;;;10.50;99.90;;;;;;6086498;23;20042;-73
2022/09/20 05:51:46;;;;;;;0.82;0.63;;;10.50;99.90;;;;;;6058992;23;20026;-73
2022/09/20 05:54:28;;;;;;;1.65;1.02;;;10.50;99.90;;;;;;6082202;23;20030;-74
2022/09/20 05:57:10;;;;;;;1.80;0.80;;;10.40;99.90;;;;;;6082619;23;20368;-74
2022/09/20 05:59:52;;;;;;;1.17;0.70;;;10.40;99.90;;;;;;6108403;23;20105;-74
2022/09/20 06:02:43;;;;;;;1.80;1.05;;;10.40;99.90;;;;;;6081660;23;20018;-74
2022/09/20 06:05:36;;;;;;;0.95;0.68;;;10.40;99.90;;;;;;6082709;23;20045;-75
2022/09/20 06:08:11;;;;;;;2.33;0.98;;;10.40;99.90;;;;;;6101406;23;20037;-76
2022/09/20 06:11:08;;;;;;;1.67;0.90;;;10.40;99.90;;;;;;6107896;23;20026;-76
2022/09/20 06:14:02;;;;;;;1.30;0.88;;;10.40;99.90;;;;;;6084236;23;20018;-75
2022/09/20 06:16:45;;;;;;;1.02;0.70;;;10.40;99.90;;;;;;6082768;23;20077;-76
2022/09/20 06:19:38;;;;;;;0.98;0.85;;;10.40;99.90;;;;;;6083191;23;20034;-76
2022/09/20 06:22:20;;;;;;;0.63;0.60;;;10.40;99.90;;;;;;6069870;23;20076;-77
2022/09/20 06:25:07;;;;;;;1.50;0.60;;;10.40;99.90;;;;;;6083254;23;20026;-76
2022/09/20 06:27:44;;;;;;;1.27;0.75;;;10.40;99.90;;;;;;6025139;23;20101;-76
2022/09/20 06:30:19;;;;;;;0.77;0.68;;;10.50;99.90;;;;;;6062362;23;20093;-76
2022/09/20 06:33:16;;;;;;;1.30;0.80;;;10.50;99.90;;;;;;6083087;23;20372;-76
2022/09/20 06:35:43;;;;;;;1.10;0.77;;;10.60;99.90;;;;;;6057588;23;20022;-76
2022/09/20 06:41:27;;;;;;;0.82;0.73;;;10.60;99.90;;;;;;6109791;23;20109;-76
2022/09/20 06:43:57;;;;;;;0.82;0.63;;;10.70;99.90;;;;;;6086420;23;20025;-76
2022/09/20 06:46:26;;;;;;;1.10;0.80;;;10.80;99.90;;;;;;6083105;23;20354;-76
2022/09/20 06:48:54;;;;;;;0.80;0.70;;;10.80;99.90;;;;;;6059425;23;20021;-76
2022/09/20 06:51:22;;;;;;;0.93;0.60;;;10.90;99.90;;;;;;6082733;23;20514;-76
2022/09/20 06:53:49;;;;;;;0.90;0.70;;;10.90;99.90;;;;;;6059722;23;20036;-76
2022/09/20 06:56:25;;;;;;;0.90;0.70;;;11.00;99.90;;;;;;6083837;23;20032;-76
2022/09/20 06:58:52;;;;;;;0.98;0.60;;;11.00;99.90;;;;;;6084157;23;20477;-76
2022/09/20 07:01:19;;;;;;;0.98;0.70;;;11.10;99.90;;;;;;6081294;23;20030;-75
2022/09/20 07:03:56;;;;;;;1.17;0.77;;;11.20;99.90;;;;;;6084764;23;20025;-76
2022/09/20 07:06:23;;;;;;;0.95;0.68;;;11.30;99.90;;;;;;6110737;23;20026;-75
2022/09/20 07:08:49;;;;;;;1.08;0.90;;;11.30;99.90;;;;;;6109937;23;20243;-75
2022/09/20 07:11:16;;;;;;;1.15;0.90;;;11.40;99.90;;;;;;6083181;23;20051;-75
2022/09/20 07:13:43;;;;;;;1.00;0.60;;;11.50;99.90;;;;;;6082816;23;20018;-75
2022/09/20 07:16:13;;;;;;;1.13;0.85;;;11.60;99.90;;;;;;6108424;23;20105;-75
2022/09/20 07:18:40;;;;;;;1.17;0.80;;;11.60;99.90;;;;;;6058374;23;20450;-76
2022/09/20 07:21:11;;;;;;;1.17;0.90;;;11.70;99.90;;;;;;6082473;23;20326;-75
2022/09/20 07:23:38;;;;;;;1.40;0.90;;;11.80;99.90;;;;;;6058759;23;20436;-76
2022/09/20 07:26:05;;;;;;;1.00;0.75;;;11.80;99.90;;;;;;6082550;23;20038;-78
2022/09/20 07:28:32;;;;;;;1.52;1.00;;;11.90;99.90;;;;;;6083362;23;20026;-76
2022/09/20 07:30:59;;;;;;;0.98;0.63;;;12.00;99.90;;;;;;6059351;23;20295;-75
2022/09/20 07:33:26;;;;;;;1.25;0.93;;;12.10;99.90;;;;;;6082639;23;20237;-75
2022/09/20 07:35:53;;;;;;;1.02;0.70;;;12.20;99.90;;;;;;6082603;23;20022;-75
2022/09/20 07:38:21;;;;;;;1.10;0.88;;;12.30;99.90;;;;;;6083139;23;20045;-75
2022/09/20 07:40:58;;;;;;;1.50;1.00;;;12.40;99.90;;;;;;6061120;23;20080;-75
2022/09/20 07:43:25;;;;;;;1.20;1.00;;;12.50;99.90;;;;;;6061189;23;20030;-76
2022/09/20 07:45:53;;;;;;;1.35;0.85;;;12.60;99.90;;;;;;6084940;23;20022;-76
2022/09/20 07:48:29;;;;;;;1.45;1.08;;;12.70;99.90;;;;;;6060028;23;20776;-76
2022/09/20 07:51:01;;;;;;;1.20;0.90;;;12.80;99.90;;;;;;6083775;23;20022;-75
2022/09/20 07:53:33;;;;;;;1.27;0.85;;;13.00;99.90;;;;;;6085183;23;20033;-76
2022/09/20 07:56:03;;;;;;;2.38;1.52;;;13.00;99.90;;;;;;6085332;23;20022;-76
2022/09/20 07:58:31;;;;;;;2.60;2.10;;;13.10;99.90;;;;;;6110869;23;20036;-75
2022/09/20 08:00:59;;;;;;;2.10;1.65;;;13.20;99.90;;;;;;6084101;23;20108;-75
2022/09/20 08:03:28;;;;;;;1.42;1.08;;;13.30;99.90;;;;;;6083871;23;20040;-76
2022/09/20 08:05:58;;;;;;;1.85;1.10;;;13.40;99.90;;;;;;6084018;23;20017;-75
2022/09/20 08:08:25;;;;;;;1.75;1.17;;;13.50;99.90;;;;;;6060855;23;20036;-76
2022/09/20 08:10:54;;;;;;;1.02;0.95;;;13.50;99.90;;;;;;6111144;23;20097;-76
2022/09/20 08:13:21;;;;;;;1.27;1.02;;;13.70;99.90;;;;;;6110098;23;20030;-76
2022/09/20 08:16:09;;;;;;;1.30;1.02;;;13.80;99.90;;;;;;6110441;23;20029;-74
2022/09/20 08:18:36;;;;;;;0.90;0.75;;;14.00;99.90;;;;;;6084238;23;20021;-75
2022/09/20 08:21:07;;;;;;;2.20;1.00;;;14.10;99.90;;;;;;6083935;23;20026;-75
2022/09/20 08:23:38;;;;;;;1.33;1.00;;;14.20;99.90;;;;;;6085197;23;20438;-76
2022/09/20 08:26:06;;;;;;;1.25;0.95;;;14.30;99.90;;;;;;6085074;23;20663;-75
2022/09/20 08:28:33;;;;;;;1.70;1.30;;;14.50;99.90;;;;;;6085002;23;20025;-75
2022/09/20 08:31:01;;;;;;;1.63;1.17;;;14.60;99.90;;;;;;6085077;23;20467;-76
2022/09/20 08:33:28;;;;;;;1.75;1.42;;;14.80;99.90;;;;;;6083754;23;20068;-75
2022/09/20 08:35:55;;;;;;;2.00;1.20;;;14.90;99.90;;;;;;6109436;23;20549;-75
2022/09/20 08:38:26;;;;;;;1.50;1.20;;;15.00;99.90;;;;;;6083838;23;20041;-76
2022/09/20 08:41:14;;;;;;;1.05;0.80;;;15.20;99.90;;;;;;6089559;23;20022;-75
2022/09/20 08:43:52;;;;;;;1.90;1.10;;;15.30;99.90;;;;;;6084607;23;20100;-75
2022/09/20 08:46:21;;;;;;;0.82;0.70;;;15.40;99.90;;;;;;6083327;23;20101;-74
2022/09/20 08:48:51;;;;;;;1.25;1.15;;;15.40;99.90;;;;;;6059905;23;20108;-75
2022/09/20 08:51:18;;;;;;;1.25;1.00;;;15.40;99.90;;;;;;6059561;23;20183;-75
2022/09/20 08:53:52;;;;;;;1.52;1.10;;;15.50;99.90;;;;;;6084543;23;20321;-76
2022/09/20 08:56:19;;;;;;;1.67;1.30;;;15.60;99.90;;;;;;6060090;23;20331;-75
2022/09/20 08:58:46;;;;;;;1.48;0.98;;;15.70;99.90;;;;;;6084104;23;20412;-75
2022/09/20 09:01:21;;;;;;;1.73;1.38;;;15.80;99.90;;;;;;6083964;23;20025;-75
2022/09/20 09:04:22;;;;;;;1.60;1.30;;;16.00;99.90;;;;;;6083258;23;20045;-76
2022/09/20 09:06:50;;;;;;;2.40;1.58;;;16.20;99.90;;;;;;6077737;23;20057;-75
2022/09/20 09:09:22;;;;;;;1.35;1.15;;;16.30;99.90;;;;;;6084268;23;20191;-76
2022/09/20 09:11:50;;;;;;;1.83;1.30;;;16.40;99.90;;;;;;6060724;23;20371;-76
2022/09/20 09:17:23;;;;;;;2.15;1.38;;;16.50;99.90;;;;;;6087335;23;20055;-76
2022/09/20 09:20:20;;;;;;;1.70;1.10;;;16.60;99.90;;;;;;6086407;23;20225;-76
2022/09/20 09:22:56;;;;;;;1.08;0.80;;;16.70;99.90;;;;;;6098616;23;20026;-76
2022/09/20 09:25:31;;;;;;;1.17;0.70;;;16.70;99.90;;;;;;6082965;23;20087;-76
2022/09/20 09:28:07;;;;;;;0.88;0.40;;;16.80;99.90;;;;;;6060688;23;20045;-76
2022/09/20 09:30:41;;;;;;;0.82;0.55;;;16.70;99.90;;;;;;6085726;23;20467;-75
2022/09/20 09:33:27;;;;;;;0.85;0.60;;;16.70;99.90;;;;;;6059176;23;20026;-76
2022/09/20 09:36:06;;;;;;;0.50;0.50;;;16.60;99.90;;;;;;6083189;23;20105;-75
2022/09/20 09:38:35;;;;;;;0.57;0.40;;;16.60;99.90;;;;;;6082574;23;20030;-76
2022/09/20 09:41:04;;;;;;;0.55;0.40;;;16.60;99.90;;;;;;6084369;23;20355;-76
2022/09/20 09:43:34;;;;;;;0.68;0.50;;;16.60;99.90;;;;;;6083207;23;20064;-75
2022/09/20 09:46:20;;;;;;;0.63;0.47;;;16.70;99.90;;;;;;6087675;23;20057;-76
2022/09/20 09:48:49;;;;;;;0.40;0.40;;;16.80;99.90;;;;;;6062311;23;20026;-76
2022/09/20 09:51:17;;;;;;;0.22;0.22;;;16.90;99.90;;;;;;6065897;23;20318;-76
2022/09/20 09:53:44;;;;;;;0.20;0.20;;;17.00;99.90;;;;;;6116638;23;20356;-76
2022/09/20 09:56:32;;;;;;;0.30;0.30;;;17.20;99.90;;;;;;6091642;23;20025;-76
2022/09/20 09:59:32;;;;;;;0.30;0.30;;;17.40;99.90;;;;;;6117680;23;20102;-75
2022/09/20 10:02:25;;;;;;;0.35;0.30;;;17.60;99.90;;;;;;6052313;23;20132;-75
2022/09/20 10:05:01;;;;;;;0.30;0.30;;;17.90;99.90;;;;;;6091690;23;20030;-75
2022/09/20 10:07:53;;;;;;;0.60;0.40;;;18.20;99.90;;;;;;6090318;23;20040;-76
2022/09/20 10:10:44;;;;;;;0.95;0.80;;;18.10;99.90;;;;;;6091325;23;20097;-76
2022/09/20 10:13:18;;;;;;;0.50;0.43;;;18.00;99.90;;;;;;6067204;23;20032;-76
2022/09/20 10:15:55;;;;;;;0.82;0.55;;;18.00;99.90;;;;;;6089651;23;20026;-76
2022/09/20 10:18:51;;;;;;;0.60;0.60;;;18.20;99.90;;;;;;6085950;23;20026;-76
2022/09/20 10:21:35;;;;;;;0.60;0.40;;;18.40;99.90;;;;;;6073260;23;20411;-76
2022/09/20 10:24:35;;;;;;;0.45;0.45;;;18.60;99.90;;;;;;6088581;23;20022;-75
2022/09/20 10:27:25;;;;;;;1.10;0.50;;;18.70;99.90;;;;;;6090748;23;20032;-76
2022/09/20 10:30:11;;;;;;;0.22;0.20;;;18.90;99.90;;;;;;6116150;23;20022;-75
2022/09/20 10:33:04;;;;;;;0.20;0.20;;;19.10;99.20;;;;;;6087578;23;20491;-76
2022/09/20 10:35:54;;;;;;;0.40;0.40;;;19.30;99.40;;;;;;6086908;23;20018;-76
2022/09/20 10:38:24;;;;;;;0.25;0.25;;;19.50;99.00;;;;;;6090543;23;20026;-76
2022/09/20 10:43:57;;;;;;;0.20;0.20;;;19.70;98.30;;;;;;6117080;23;20328;-76
2022/09/20 10:46:54;;;;;;;0.20;0.20;;;19.80;98.20;;;;;;6091578;23;20104;-76
2022/09/20 10:49:59;;;;;;;0.38;0.30;;;20.00;97.90;;;;;;6070979;23;20026;-76
2022/09/20 10:52:36;;;;;;;0.30;0.30;;;19.90;97.50;;;;;;6094032;23;20044;-76
2022/09/20 10:55:23;;;;;;;0.38;0.38;;;19.80;97.00;;;;;;6068192;23;20093;-76
2022/09/20 10:58:08;;;;;;;0.15;0.15;;;19.70;97.30;;;;;;6116591;23;20022;-76
2022/09/20 11:00:35;;;;;;;0.30;0.30;;;19.70;98.20;;;;;;6117271;23;20029;-76
2022/09/20 11:03:20;;;;;;;0.30;0.30;;;20.00;97.50;;;;;;6089972;23;20022;-76
2022/09/20 11:06:09;;;;;;;0.35;0.28;;;20.30;97.20;;;;;;6091082;23;20080;-76
2022/09/20 11:08:37;;;;;;;0.55;0.45;;;20.40;96.90;;;;;;6116885;23;20018;-76
2022/09/20 11:11:22;;;;;;;0.47;0.38;;;20.40;95.60;;;;;;6087404;23;20553;-76
2022/09/20 11:14:01;;;;;;;0.32;0.28;;;20.40;95.90;;;;;;6063159;23;20036;-76
2022/09/20 11:16:46;;;;;;;0.45;0.35;;;20.50;96.10;;;;;;6090443;23;20217;-75
2022/09/20 11:19:25;;;;;;;0.32;0.30;;;20.60;97.00;;;;;;6090992;23;20021;-76
2022/09/20 11:22:13;;;;;;;0.25;0.25;;;20.50;96.10;;;;;;6090028;23;20604;-76
2022/09/20 11:24:51;;;;;;;0.25;0.25;;;20.70;95.20;;;;;;6086248;23;20022;-75
2022/09/20 11:27:24;;;;;;;0.20;0.20;;;21.10;95.50;;;;;;6086236;23;20101;-76
2022/09/20 11:29:55;;;;;;;0.57;0.40;;;21.10;94.40;;;;;;6089838;23;20022;-76
2022/09/20 11:32:30;;;;;;;0.50;0.50;;;21.10;94.80;;;;;;6088382;23;20033;-76
2022/09/20 11:35:25;;;;;;;0.90;0.50;;;20.90;94.40;;;;;;6064785;23;20018;-75
2022/09/20 11:38:15;;;;;;;0.50;0.50;;;20.70;94.90;;;;;;6113211;23;20030;-76
2022/09/20 11:40:46;;;;;;;0.57;0.30;;;20.80;95.10;;;;;;6115093;23;20022;-76
2022/09/20 11:43:13;;;;;;;0.40;0.30;;;20.90;94.90;;;;;;6089812;23;20101;-75
2022/09/20 11:45:41;;;;;;;0.20;0.20;;;21.10;94.80;;;;;;6089413;23;20097;-75
2022/09/20 11:48:28;;;;;;;0.50;0.45;;;21.10;94.60;;;;;;6086335;23;20022;-75
2022/09/20 11:51:13;;;;;;;0.52;0.40;;;21.20;94.30;;;;;;6057552;23;20430;-74
2022/09/20 11:53:58;;;;;;;0.52;0.43;;;21.00;94.30;;;;;;6080383;23;20117;-75
2022/09/20 11:56:25;;;;;;;0.20;0.20;;;20.90;94.20;;;;;;6106975;23;20382;-76
2022/09/20 11:58:54;;;;;;;0.30;0.30;;;21.20;94.40;;;;;;6082185;23;20072;-76
2022/09/20 12:01:33;;;;;;;0.30;0.25;;;21.50;94.10;;;;;;6080515;23;20022;-76
2022/09/20 12:04:22;;;;;;;0.40;0.40;;;21.70;94.30;;;;;;6081393;23;20026;-77
2022/09/20 12:07:15;;;;;;;0.28;0.28;;;21.50;93.60;;;;;;6083874;23;20026;-78
2022/09/20 12:09:57;;;;;;;0.85;0.50;;;21.60;93.40;;;;;;6059349;23;20064;-77
2022/09/20 12:12:31;;;;;;;0.43;0.40;;;21.80;93.50;;;;;;6082308;23;20036;-77
2022/09/20 12:14:58;;;;;;;0.47;0.40;;;21.90;94.00;;;;;;6107761;23;20025;-77
2022/09/20 12:17:44;;;;;;;0.85;0.40;;;22.20;93.80;;;;;;6080808;23;20041;-77
2022/09/20 12:20:43;;;;;;;0.63;0.40;;;22.00;93.00;;;;;;6081325;23;20036;-77
2022/09/20 12:23:41;;;;;;;0.43;0.40;;;21.90;93.10;;;;;;6081287;23;20030;-77
2022/09/20 12:26:13;;;;;;;0.43;0.30;;;22.00;93.10;;;;;;6084582;23;20549;-77
2022/09/20 12:28:41;;;;;;;0.40;0.40;;;22.30;93.30;;;;;;6110087;23;20022;-77
2022/09/20 12:31:30;;;;;;;0.57;0.30;;;22.40;92.50;;;;;;6084108;23;20125;-76
2022/09/20 12:33:58;;;;;;;0.40;0.40;;;22.60;92.90;;;;;;6083239;23;20144;-77
2022/09/20 12:36:35;;;;;;;0.20;0.20;;;22.90;91.90;;;;;;6083072;23;20291;-76
2022/09/20 12:39:11;;;;;;;0.30;0.30;;;23.00;91.80;;;;;;6085383;23;20045;-76
2022/09/20 12:41:44;;;;;;;0.45;0.45;;;22.60;91.60;;;;;;6109311;23;20387;-76
2022/09/20 12:44:26;;;;;;;0.70;0.50;;;22.50;91.90;;;;;;6082557;23;20029;-77
2022/09/20 12:47:07;;;;;;;0.77;0.50;;;22.10;92.10;;;;;;6108361;23;20105;-77
2022/09/20 12:52:57;;;;;;;0.17;0.17;;;21.90;92.40;;;;;;6089151;23;20187;-77
2022/09/20 12:55:39;;;;;;;0.30;0.30;;;21.70;92.90;;;;;;6109777;23;20279;-76
2022/09/20 12:58:12;;;;;;;0.28;0.28;;;22.00;92.20;;;;;;6084142;23;20473;-76
2022/09/20 13:00:41;;;;;;;0.55;0.40;;;22.20;92.00;;;;;;6109513;23;20745;-76
2022/09/20 13:03:15;;;;;;;0.35;0.35;;;22.30;91.70;;;;;;6082757;23;20166;-76
2022/09/20 13:05:46;;;;;;;0.40;0.40;;;22.50;92.70;;;;;;6109370;23;20026;-76
2022/09/20 13:08:26;;;;;;;0.30;0.30;;;23.00;92.70;;;;;;6083637;23;20017;-76
2022/09/20 13:11:18;;;;;;;0.30;0.30;;;23.90;91.40;;;;;;6059256;23;20441;-76
2022/09/20 13:13:54;;;;;;;0.63;0.50;;;24.40;90.30;;;;;;6059602;23;20029;-74
2022/09/20 13:16:29;;;;;;;0.30;0.30;;;24.40;90.30;;;;;;6057602;23;20022;-74
2022/09/20 13:19:08;;;;;;;0.52;0.40;;;24.00;90.00;;;;;;6057846;23;20065;-74
2022/09/20 13:21:42;;;;;;;0.40;0.40;;;24.30;89.80;;;;;;6108788;23;20037;-74
2022/09/20 13:24:11;;;;;;;0.20;0.20;;;25.10;89.60;;;;;;6059155;23;20032;-74
2022/09/20 13:26:39;;;;;;;0.20;0.20;;;25.40;88.90;;;;;;6083104;23;20137;-74
2022/09/20 13:29:07;;;;;;;0.38;0.38;;;25.30;88.60;;;;;;6083014;23;20026;-74
2022/09/20 13:31:34;;;;;;;0.57;0.50;;;25.40;87.90;;;;;;6080592;23;20030;-74
2022/09/20 13:34:18;;;;;;;1.67;0.52;;;25.30;87.10;;;;;;6081661;23;20030;-74
2022/09/20 13:36:45;;;;;;;0.40;0.35;;;25.50;88.00;;;;;;6081348;23;20030;-74
2022/09/20 13:39:41;;;;;;;0.47;0.40;;;26.00;87.70;;;;;;6057743;23;20029;-74
2022/09/20 13:42:11;;;;;;;0.88;0.50;;;25.80;86.00;;;;;;6032920;23;20036;-74
2022/09/20 13:44:37;;;;;;;1.60;0.40;;;25.40;86.50;;;;;;6077636;23;20044;-74
2022/09/20 13:47:25;;;;;;;0.52;0.50;;;25.00;87.50;;;;;;6079145;23;20030;-75
2022/09/20 13:49:52;;;;;;;0.35;0.35;;;24.80;88.50;;;;;;6084818;23;20078;-74
2022/09/20 13:52:24;;;;;;;0.30;0.30;;;24.60;87.90;;;;;;6083996;23;20030;-74
2022/09/20 13:54:50;;;;;;;0.73;0.60;;;24.60;89.10;;;;;;6089580;23;20018;-74
2022/09/20 13:57:22;;;;;;;0.60;0.43;;;24.00;88.80;;;;;;6088402;23;20022;-74
2022/09/20 13:59:48;;;;;;;0.47;0.40;;;23.80;89.50;;;;;;6087981;23;20033;-77